Аэропорт: Талаги. Архангельск

ICAO: ULAA

METAR:
2021-01-24 17:30:00
ULAA 241730Z 14002MPS 090V190 4000 -SHSN OVC005CB M02/M03 Q1004 R08/590532 NOSIG RMK QBB150 QFE752/1003
METAR:
2021-01-24 14:00:00
TAF ULAA 241400Z 2415/2515 18003MPS 2100 -SHSN BKN004 BKN011CB TEMPO 2415/2421 14003G10MPS 0500 +SHSN +FZDZ BKN002 BKN010CB FM242100 18003MPS 6000 -SHSN BKN011CB TEMPO 2421/2509 21003G10MPS 1000 SHSN BR BKN004 BKN010CB